Time;durP1;ratioP1;P1;durP2;ratioP2;P2;SDS_P1;SDS_P2;PMS_P1;PMS_P2;Temp;Humidity;BMP_temperature;BMP_pressure;BME280_temperature;BME280_humidity;BME280_pressure;Samples;Min_cycle;Max_cycle;Signal;HPM_P1;HPM_P2
2023/06/11 00:00:04;;;;;;;3.55;3.22;;;;;;;;;;6253944;28;20021;-72
2023/06/11 00:03:04;;;;;;;3.47;3.17;;;;;;;;;;6258018;28;20476;-70
2023/06/11 00:06:05;;;;;;;3.70;3.37;;;;;;;;;;6255042;28;20056;-70
2023/06/11 00:09:06;;;;;;;3.58;3.28;;;;;;;;;;6260162;28;20337;-72
2023/06/11 00:12:06;;;;;;;;;;;;;;;;;;6256449;28;20047;-69
2023/06/11 00:15:07;;;;;;;3.65;2.80;;;;;;;;;;6252652;28;19913;-69
2023/06/11 00:18:07;;;;;;;3.65;3.13;;;;;;;;;;6256241;28;20029;-68
2023/06/11 00:21:08;;;;;;;3.37;3.07;;;;;;;;;;6258271;28;20533;-65
2023/06/11 00:24:10;;;;;;;3.38;3.03;;;;;;;;;;6258711;28;20446;-66
2023/06/11 00:27:10;;;;;;;3.28;2.95;;;;;;;;;;6255297;28;20028;-65
2023/06/11 00:30:11;;;;;;;3.13;2.93;;;;;;;;;;6256687;28;20498;-66
2023/06/11 00:33:11;;;;;;;3.40;3.13;;;;;;;;;;6254664;28;20516;-66
2023/06/11 00:36:11;;;;;;;3.37;3.07;;;;;;;;;;6252926;28;20033;-68
2023/06/11 00:39:12;;;;;;;;;;;;;;;;;;6256954;28;20572;-67
2023/06/11 00:42:12;;;;;;;2.67;2.30;;;;;;;;;;6256185;28;19917;-66
2023/06/11 00:45:13;;;;;;;3.17;2.88;;;;;;;;;;6256480;28;20025;-67
2023/06/11 00:48:13;;;;;;;3.00;2.80;;;;;;;;;;6260279;28;20029;-69
2023/06/11 00:51:15;;;;;;;3.23;3.03;;;;;;;;;;6265000;28;20393;-71
2023/06/11 00:54:16;;;;;;;3.63;2.97;;;;;;;;;;6260566;28;20035;-67
2023/06/11 00:57:17;;;;;;;3.45;3.15;;;;;;;;;;6255084;28;20139;-68
2023/06/11 01:00:18;;;;;;;3.85;3.55;;;;;;;;;;6251370;28;20028;-66
2023/06/11 01:03:21;;;;;;;4.35;3.95;;;;;;;;;;6250514;28;20024;-67
2023/06/11 01:06:21;;;;;;;3.67;3.38;;;;;;;;;;6256403;28;20029;-66
2023/06/11 01:09:22;;;;;;;3.15;2.95;;;;;;;;;;6257397;28;20043;-68
2023/06/11 01:12:22;;;;;;;3.72;3.42;;;;;;;;;;6254701;28;20130;-69
2023/06/11 01:15:22;;;;;;;3.50;3.20;;;;;;;;;;6252407;28;20036;-69
2023/06/11 01:18:24;;;;;;;3.80;3.30;;;;;;;;;;6253129;28;20029;-68
2023/06/11 01:21:29;;;;;;;3.55;3.25;;;;;;;;;;6252756;28;20028;-64
2023/06/11 01:24:40;;;;;;;4.50;3.40;;;;;;;;;;6250781;28;20658;-69
2023/06/11 01:27:43;;;;;;;3.67;3.38;;;;;;;;;;6257740;28;20073;-65
2023/06/11 01:30:48;;;;;;;3.67;3.38;;;;;;;;;;6250134;28;20402;-66
2023/06/11 01:33:48;;;;;;;4.00;3.67;;;;;;;;;;6252365;28;21242;-65
2023/06/11 01:36:49;;;;;;;3.87;3.57;;;;;;;;;;6255524;28;20040;-65
2023/06/11 01:39:49;;;;;;;4.70;3.17;;;;;;;;;;6252504;28;20097;-67
2023/06/11 01:42:49;;;;;;;3.50;3.20;;;;;;;;;;6249334;28;20032;-65
2023/06/11 01:45:50;;;;;;;4.70;3.50;;;;;;;;;;6252053;28;20422;-67
2023/06/11 01:48:50;;;;;;;3.25;2.95;;;;;;;;;;6249641;28;20250;-66
2023/06/11 01:51:50;;;;;;;3.90;3.57;;;;;;;;;;6253761;28;20466;-67
2023/06/11 01:54:51;;;;;;;5.47;3.70;;;;;;;;;;6255718;28;20056;-66
2023/06/11 01:57:51;;;;;;;3.63;3.15;;;;;;;;;;6253281;28;20405;-66
2023/06/11 02:00:52;;;;;;;3.93;3.53;;;;;;;;;;6250366;28;20167;-69
2023/06/11 02:03:52;;;;;;;4.20;3.33;;;;;;;;;;6248767;28;20086;-64
2023/06/11 02:06:52;;;;;;;3.63;3.33;;;;;;;;;;6252844;28;20496;-69
2023/06/11 02:09:52;;;;;;;4.07;3.70;;;;;;;;;;6255195;28;20124;-68
2023/06/11 02:12:52;;;;;;;5.17;3.70;;;;;;;;;;6254510;28;20044;-65
2023/06/11 02:15:53;;;;;;;4.13;3.67;;;;;;;;;;6251539;28;20025;-66
2023/06/11 02:18:53;;;;;;;3.40;3.10;;;;;;;;;;6250712;28;20533;-66
2023/06/11 02:21:53;;;;;;;3.00;2.70;;;;;;;;;;6251083;28;20032;-65
2023/06/11 02:24:53;;;;;;;3.77;3.47;;;;;;;;;;6250959;28;20559;-65
2023/06/11 02:27:54;;;;;;;3.08;2.78;;;;;;;;;;6254012;28;20029;-66
2023/06/11 02:30:54;;;;;;;3.33;3.03;;;;;;;;;;6250350;28;20033;-67
2023/06/11 02:33:55;;;;;;;3.77;3.47;;;;;;;;;;6249436;28;21477;-65
2023/06/11 02:36:55;;;;;;;3.83;3.33;;;;;;;;;;6265588;28;20280;-66
2023/06/11 02:39:55;;;;;;;3.70;3.40;;;;;;;;;;6261349;28;20037;-68
2023/06/11 02:42:55;;;;;;;3.60;3.30;;;;;;;;;;6263554;28;20033;-66
2023/06/11 02:45:55;;;;;;;5.13;3.77;;;;;;;;;;6248456;28;20083;-65
2023/06/11 02:48:56;;;;;;;3.90;3.50;;;;;;;;;;6252339;28;20029;-66
2023/06/11 02:51:56;;;;;;;3.93;3.50;;;;;;;;;;6247037;28;20134;-66
2023/06/11 02:54:56;;;;;;;4.00;3.60;;;;;;;;;;6251561;28;20035;-68
2023/06/11 02:57:56;;;;;;;4.10;3.70;;;;;;;;;;6251981;28;20276;-65
2023/06/11 03:00:56;;;;;;;3.87;3.50;;;;;;;;;;6252739;28;20017;-66
2023/06/11 03:03:57;;;;;;;3.70;3.40;;;;;;;;;;6250078;28;20036;-67
2023/06/11 03:06:57;;;;;;;3.83;3.50;;;;;;;;;;6245928;28;20052;-66
2023/06/11 03:09:57;;;;;;;4.50;3.30;;;;;;;;;;6252579;28;20502;-67
2023/06/11 03:12:57;;;;;;;5.87;3.73;;;;;;;;;;6252585;28;20336;-68
2023/06/11 03:15:58;;;;;;;3.60;3.13;;;;;;;;;;6250780;28;20481;-65
2023/06/11 03:18:58;;;;;;;3.60;3.30;;;;;;;;;;6253769;28;20363;-65
2023/06/11 03:21:58;;;;;;;4.20;3.43;;;;;;;;;;6251153;28;20351;-66
2023/06/11 03:24:58;;;;;;;3.63;3.33;;;;;;;;;;6252797;28;20067;-66
2023/06/11 03:27:59;;;;;;;4.73;3.80;;;;;;;;;;6247472;28;20174;-65
2023/06/11 03:30:59;;;;;;;4.20;3.80;;;;;;;;;;6252847;28;20016;-64
2023/06/11 03:34:00;;;;;;;4.13;3.80;;;;;;;;;;6248781;28;20056;-67
2023/06/11 03:37:01;;;;;;;4.03;3.63;;;;;;;;;;6251895;28;20112;-65
2023/06/11 03:40:01;;;;;;;4.40;3.67;;;;;;;;;;6241636;28;20040;-66
2023/06/11 03:43:01;;;;;;;4.13;3.80;;;;;;;;;;6242628;28;20017;-65
2023/06/11 03:46:02;;;;;;;3.97;3.67;;;;;;;;;;6238804;28;20083;-65
2023/06/11 03:49:02;;;;;;;4.10;3.80;;;;;;;;;;6245866;28;20036;-66
2023/06/11 03:52:02;;;;;;;4.77;4.23;;;;;;;;;;6242330;28;20067;-66
2023/06/11 03:55:03;;;;;;;4.78;4.38;;;;;;;;;;6243087;28;20103;-66
2023/06/11 03:58:03;;;;;;;4.70;4.30;;;;;;;;;;6249083;28;20057;-65
2023/06/11 04:01:03;;;;;;;4.73;4.33;;;;;;;;;;6246530;28;20032;-65
2023/06/11 04:04:04;;;;;;;4.03;3.73;;;;;;;;;;6245464;28;20025;-68
2023/06/11 04:07:05;;;;;;;4.28;3.88;;;;;;;;;;6243844;28;20479;-65
2023/06/11 04:10:08;;;;;;;4.97;4.47;;;;;;;;;;6246567;28;20108;-66
2023/06/11 04:13:08;;;;;;;5.32;4.80;;;;;;;;;;6247493;28;20453;-66
2023/06/11 04:16:08;;;;;;;5.10;4.70;;;;;;;;;;6244243;28;20029;-67
2023/06/11 04:19:09;;;;;;;4.77;4.37;;;;;;;;;;6245274;28;20021;-66
2023/06/11 04:22:09;;;;;;;5.00;4.60;;;;;;;;;;6244324;28;20032;-66
2023/06/11 04:25:11;;;;;;;5.00;4.60;;;;;;;;;;6243754;28;20091;-66
2023/06/11 04:28:16;;;;;;;5.28;4.38;;;;;;;;;;6247719;28;21071;-65
2023/06/11 04:31:16;;;;;;;4.95;4.45;;;;;;;;;;6250968;28;20021;-68
2023/06/11 04:34:20;;;;;;;4.97;4.50;;;;;;;;;;6250347;28;20025;-68
2023/06/11 04:37:21;;;;;;;5.13;4.35;;;;;;;;;;6250741;28;20028;-68
2023/06/11 04:40:23;;;;;;;4.80;4.40;;;;;;;;;;6250784;28;20388;-66
2023/06/11 04:43:23;;;;;;;4.88;4.38;;;;;;;;;;6248596;28;20037;-66
2023/06/11 04:46:24;;;;;;;4.63;4.22;;;;;;;;;;6248184;28;20505;-66
2023/06/11 04:49:24;;;;;;;5.10;4.60;;;;;;;;;;6251026;28;20432;-66
2023/06/11 04:52:26;;;;;;;5.10;4.70;;;;;;;;;;6247525;28;20508;-66
2023/06/11 04:55:27;;;;;;;4.97;4.57;;;;;;;;;;6248835;28;20025;-68
2023/06/11 04:58:27;;;;;;;4.85;4.45;;;;;;;;;;6253348;28;20459;-66
2023/06/11 05:01:30;;;;;;;5.03;4.57;;;;;;;;;;6257605;28;20075;-67
2023/06/11 05:04:31;;;;;;;4.85;4.45;;;;;;;;;;6262028;28;20725;-66
2023/06/11 05:07:32;;;;;;;5.40;4.95;;;;;;;;;;6259418;28;20390;-66
2023/06/11 05:10:32;;;;;;;5.05;4.43;;;;;;;;;;6257791;28;20017;-66
2023/06/11 05:13:32;;;;;;;5.87;4.77;;;;;;;;;;6258184;28;20036;-66
2023/06/11 05:16:33;;;;;;;;;;;;;;;;;;6263825;28;20031;-68
2023/06/11 05:19:33;;;;;;;4.45;4.05;;;;;;;;;;6275332;28;19924;-71
2023/06/11 05:22:34;;;;;;;5.03;4.53;;;;;;;;;;6260084;28;20136;-65
2023/06/11 05:25:35;;;;;;;5.75;5.20;;;;;;;;;;6256493;28;20036;-67
2023/06/11 05:28:35;;;;;;;;;;;;;;;;;;6255143;28;20359;-68
2023/06/11 05:31:35;;;;;;;4.83;4.43;;;;;;;;;;6251956;28;19916;-65
2023/06/11 05:34:37;;;;;;;5.47;4.90;;;;;;;;;;6248126;28;20024;-68
2023/06/11 05:37:38;;;;;;;5.82;5.22;;;;;;;;;;6249732;28;20170;-69
2023/06/11 05:40:38;;;;;;;7.88;5.32;;;;;;;;;;6246773;28;20028;-70
2023/06/11 05:43:38;;;;;;;6.37;5.77;;;;;;;;;;6249032;28;20586;-68
2023/06/11 05:46:39;;;;;;;5.80;5.30;;;;;;;;;;6252261;28;20024;-71
2023/06/11 05:49:39;;;;;;;5.80;5.30;;;;;;;;;;6255114;28;20021;-68
2023/06/11 05:52:39;;;;;;;5.87;4.93;;;;;;;;;;6254771;28;20111;-70
2023/06/11 05:55:39;;;;;;;;;;;;;;;;;;6259329;28;20021;-66
2023/06/11 05:58:40;;;;;;;4.47;4.07;;;;;;;;;;6251778;28;20242;-66
2023/06/11 06:01:45;;;;;;;5.43;5.03;;;;;;;;;;6253526;28;21018;-71
2023/06/11 06:04:45;;;;;;;5.45;5.05;;;;;;;;;;6253162;28;20302;-68
2023/06/11 06:07:46;;;;;;;6.13;5.63;;;;;;;;;;6253775;28;20013;-66
2023/06/11 06:10:46;;;;;;;;;;;;;;;;;;6253157;28;20033;-66
2023/06/11 06:13:46;;;;;;;6.45;5.32;;;;;;;;;;6249564;28;19935;-66
2023/06/11 06:16:46;;;;;;;;;;;;;;;;;;6253425;28;20144;-66
2023/06/11 06:19:47;;;;;;;6.50;4.72;;;;;;;;;;6251660;28;19925;-67
2023/06/11 06:22:47;;;;;;;;;;;;;;;;;;6244988;28;20032;-68
2023/06/11 06:25:47;;;;;;;5.25;4.85;;;;;;;;;;6253963;28;21856;-68
2023/06/11 06:28:47;;;;;;;;;;;;;;;;;;6245909;28;20059;-67
2023/06/11 06:31:48;;;;;;;7.57;5.60;;;;;;;;;;6247024;28;19968;-70
2023/06/11 06:34:48;;;;;;;;;;;;;;;;;;6250787;28;20107;-68
2023/06/11 06:37:48;;;;;;;6.45;5.85;;;;;;;;;;6245354;28;20025;-67
2023/06/11 06:40:48;;;;;;;;;;;;;;;;;;6252660;28;20025;-67
2023/06/11 06:43:48;;;;;;;6.72;5.97;;;;;;;;;;6245923;28;19924;-70
2023/06/11 06:46:49;;;;;;;;;;;;;;;;;;6248517;28;20598;-69
2023/06/11 06:49:49;;;;;;;5.75;5.25;;;;;;;;;;6248584;28;20393;-66
2023/06/11 06:52:49;;;;;;;6.70;6.20;;;;;;;;;;6252167;28;20021;-70
2023/06/11 06:55:50;;;;;;;;;;;;;;;;;;6249608;28;20263;-71
2023/06/11 06:58:50;;;;;;;6.45;5.25;;;;;;;;;;6240799;28;20521;-70
2023/06/11 07:01:50;;;;;;;6.75;6.15;;;;;;;;;;6246940;28;20448;-69
2023/06/11 07:04:51;;;;;;;;;;;;;;;;;;6250448;28;20035;-69
2023/06/11 07:07:51;;;;;;;5.88;5.38;;;;;;;;;;6248074;28;19912;-72
2023/06/11 07:10:53;;;;;;;;;;;;;;;;;;6250757;28;20025;-70
2023/06/11 07:13:53;;;;;;;6.90;6.15;;;;;;;;;;6249856;28;20575;-71
2023/06/11 07:16:53;;;;;;;;;;;;;;;;;;6248332;28;20040;-69
2023/06/11 07:19:53;;;;;;;6.70;6.10;;;;;;;;;;6246672;28;19913;-69
2023/06/11 07:22:53;;;;;;;;;;;;;;;;;;6250742;28;20021;-68
2023/06/11 07:25:55;;;;;;;6.93;6.20;;;;;;;;;;6254903;28;19963;-68
2023/06/11 07:28:55;;;;;;;8.68;6.38;;;;;;;;;;6241895;28;20029;-68
2023/06/11 07:31:55;;;;;;;;;;;;;;;;;;6245391;28;20028;-68
2023/06/11 07:34:55;;;;;;;6.82;6.22;;;;;;;;;;6246427;28;20000;-69
2023/06/11 07:37:56;;;;;;;;;;;;;;;;;;6248823;28;20033;-69
2023/06/11 07:40:56;;;;;;;6.60;6.00;;;;;;;;;;6249911;28;19913;-71
2023/06/11 07:43:56;;;;;;;;;;;;;;;;;;6241440;28;20032;-68
2023/06/11 07:46:56;;;;;;;6.25;5.75;;;;;;;;;;6251649;28;20000;-68
2023/06/11 07:49:57;;;;;;;;;;;;;;;;;;6245722;28;20520;-69
2023/06/11 07:52:57;;;;;;;6.45;5.95;;;;;;;;;;6255854;28;19919;-67
2023/06/11 07:55:57;;;;;;;7.03;6.35;;;;;;;;;;6258257;28;20538;-77
2023/06/11 07:58:58;;;;;;;;;;;;;;;;;;6253955;28;20021;-70
2023/06/11 08:01:58;;;;;;;6.38;5.80;;;;;;;;;;6254224;28;19917;-71
2023/06/11 08:04:58;;;;;;;;;;;;;;;;;;6253213;28;20162;-70
2023/06/11 08:07:58;;;;;;;6.32;5.75;;;;;;;;;;6255959;28;20252;-70
2023/06/11 08:10:58;;;;;;;;;;;;;;;;;;6254149;28;20150;-68
2023/06/11 08:13:58;;;;;;;6.18;5.68;;;;;;;;;;6253988;28;19916;-69
2023/06/11 08:16:59;;;;;;;6.83;6.23;;;;;;;;;;6253412;28;20153;-68
2023/06/11 08:20:00;;;;;;;7.03;6.32;;;;;;;;;;6252793;28;20035;-68
2023/06/11 08:23:00;;;;;;;6.95;6.43;;;;;;;;;;6250579;28;20029;-68
2023/06/11 08:26:00;;;;;;;6.77;6.17;;;;;;;;;;6250877;28;20097;-67
2023/06/11 08:29:00;;;;;;;7.00;6.43;;;;;;;;;;6252757;28;20255;-68
2023/06/11 08:32:01;;;;;;;6.87;5.97;;;;;;;;;;6249476;28;20074;-70
2023/06/11 08:35:01;;;;;;;6.85;5.93;;;;;;;;;;6246229;28;20029;-68
2023/06/11 08:38:01;;;;;;;7.72;6.97;;;;;;;;;;6247024;28;20321;-69
2023/06/11 08:41:01;;;;;;;7.17;6.57;;;;;;;;;;6251826;28;20075;-69
2023/06/11 08:44:02;;;;;;;6.93;6.33;;;;;;;;;;6254065;28;20348;-66
2023/06/11 08:47:03;;;;;;;6.68;6.10;;;;;;;;;;6250119;28;20302;-68
2023/06/11 08:50:05;;;;;;;6.78;6.22;;;;;;;;;;6247542;28;20028;-68
2023/06/11 08:53:06;;;;;;;6.25;5.70;;;;;;;;;;6249498;28;20560;-68
2023/06/11 08:56:07;;;;;;;6.70;6.10;;;;;;;;;;6250079;28;20021;-67
2023/06/11 08:59:07;;;;;;;6.47;5.88;;;;;;;;;;6253906;28;20489;-69
2023/06/11 09:02:08;;;;;;;6.78;6.18;;;;;;;;;;6251016;28;20025;-70
2023/06/11 09:05:08;;;;;;;6.40;5.90;;;;;;;;;;6253807;28;20132;-68
2023/06/11 09:08:08;;;;;;;6.78;6.18;;;;;;;;;;6253075;28;20071;-69
2023/06/11 09:11:09;;;;;;;6.30;5.80;;;;;;;;;;6249018;28;21923;-67
2023/06/11 09:14:09;;;;;;;6.47;5.95;;;;;;;;;;6252254;28;20310;-69
2023/06/11 09:17:14;;;;;;;6.68;5.97;;;;;;;;;;6253332;28;20063;-66
2023/06/11 09:20:15;;;;;;;6.57;6.07;;;;;;;;;;6253114;28;20024;-67
2023/06/11 09:23:25;;;;;;;6.70;6.18;;;;;;;;;;6252009;28;20028;-69
2023/06/11 09:26:28;;;;;;;7.25;6.70;;;;;;;;;;6248374;28;20112;-70
2023/06/11 09:29:28;;;;;;;7.90;7.07;;;;;;;;;;6245263;28;20029;-69
2023/06/11 09:32:28;;;;;;;7.20;6.60;;;;;;;;;;6252330;28;20112;-68
2023/06/11 09:35:29;;;;;;;6.73;6.23;;;;;;;;;;6249335;28;20098;-68
2023/06/11 09:38:32;;;;;;;6.67;5.97;;;;;;;;;;6252335;28;20585;-69
2023/06/11 09:41:33;;;;;;;7.57;6.05;;;;;;;;;;6250684;28;20032;-67
2023/06/11 09:44:33;;;;;;;6.85;6.22;;;;;;;;;;6249864;28;20065;-68
2023/06/11 09:47:35;;;;;;;9.10;5.83;;;;;;;;;;6248458;28;20470;-67
2023/06/11 09:50:35;;;;;;;5.97;5.57;;;;;;;;;;6251234;28;20035;-71
2023/06/11 09:53:37;;;;;;;6.38;5.88;;;;;;;;;;6247316;28;20101;-69
2023/06/11 09:56:37;;;;;;;6.50;5.93;;;;;;;;;;6245672;28;20091;-65
2023/06/11 09:59:39;;;;;;;6.70;6.10;;;;;;;;;;6250673;28;20465;-67
2023/06/11 10:02:40;;;;;;;6.80;5.82;;;;;;;;;;6248781;28;20109;-65
2023/06/11 10:05:40;;;;;;;6.20;5.70;;;;;;;;;;6250041;28;20029;-67
2023/06/11 10:08:41;;;;;;;6.00;5.57;;;;;;;;;;6252689;28;20036;-65
2023/06/11 10:11:42;;;;;;;5.85;5.22;;;;;;;;;;6249297;28;20497;-67
2023/06/11 10:14:49;;;;;;;6.50;5.93;;;;;;;;;;6245677;28;20087;-67
2023/06/11 10:17:50;;;;;;;6.25;5.72;;;;;;;;;;6251600;28;20024;-65
2023/06/11 10:20:52;;;;;;;7.00;6.30;;;;;;;;;;6248182;28;20027;-66
2023/06/11 10:23:52;;;;;;;7.05;6.40;;;;;;;;;;6240465;28;20474;-67
2023/06/11 10:27:10;;;;;;;6.68;6.18;;;;;;;;;;6263353;28;20028;-68
2023/06/11 10:30:22;;;;;;;6.78;6.28;;;;;;;;;;6251539;28;20161;-67
2023/06/11 10:33:33;;;;;;;6.35;5.75;;;;;;;;;;6242252;28;20029;-69
2023/06/11 10:36:35;;;;;;;6.40;5.80;;;;;;;;;;6245066;28;20070;-67
2023/06/11 10:39:35;;;;;;;6.63;6.03;;;;;;;;;;6241919;28;20027;-66
2023/06/11 10:42:41;;;;;;;6.75;6.07;;;;;;;;;;6248540;28;20017;-66
2023/06/11 10:45:41;;;;;;;7.10;6.22;;;;;;;;;;6249675;28;20051;-67
2023/06/11 10:49:00;;;;;;;7.30;6.70;;;;;;;;;;6251374;28;20095;-69
2023/06/11 10:52:01;;;;;;;6.97;6.38;;;;;;;;;;6244009;28;20111;-68
2023/06/11 10:55:01;;;;;;;6.82;6.22;;;;;;;;;;6249573;28;20516;-68
2023/06/11 10:58:02;;;;;;;8.43;7.75;;;;;;;;;;6248281;28;20024;-68
2023/06/11 11:01:04;;;;;;;7.10;6.43;;;;;;;;;;6253736;28;20028;-68
2023/06/11 11:04:04;;;;;;;7.85;6.88;;;;;;;;;;6249246;28;20025;-68
2023/06/11 11:07:08;;;;;;;6.88;6.05;;;;;;;;;;6240612;28;20020;-67
2023/06/11 11:10:08;;;;;;;6.45;5.90;;;;;;;;;;6248403;28;20100;-68
2023/06/11 11:13:08;;;;;;;6.40;5.90;;;;;;;;;;6250839;28;20094;-66
2023/06/11 11:16:08;;;;;;;7.00;5.93;;;;;;;;;;6238435;28;20029;-70
2023/06/11 11:19:09;;;;;;;6.90;6.30;;;;;;;;;;6251583;28;20021;-70
2023/06/11 11:22:11;;;;;;;6.53;5.93;;;;;;;;;;6246374;28;20275;-69
2023/06/11 11:25:12;;;;;;;6.63;6.07;;;;;;;;;;6245139;28;20798;-70
2023/06/11 11:28:12;;;;;;;7.47;6.85;;;;;;;;;;6248889;28;20021;-69
2023/06/11 11:31:17;;;;;;;7.32;6.63;;;;;;;;;;6246868;28;20052;-69
2023/06/11 11:34:18;;;;;;;9.45;6.80;;;;;;;;;;6245342;28;20056;-68
2023/06/11 11:37:18;;;;;;;8.90;8.00;;;;;;;;;;6250569;28;20514;-68
2023/06/11 11:40:19;;;;;;;7.40;6.70;;;;;;;;;;6255933;28;20028;-68
2023/06/11 11:43:19;;;;;;;7.60;6.90;;;;;;;;;;6254549;28;20420;-69
2023/06/11 11:46:20;;;;;;;6.87;6.37;;;;;;;;;;6248985;28;20020;-72
2023/06/11 11:49:20;;;;;;;7.43;6.72;;;;;;;;;;6254988;28;20670;-70
2023/06/11 11:52:22;;;;;;;8.17;6.20;;;;;;;;;;6251236;28;20513;-69
2023/06/11 11:55:22;;;;;;;6.35;5.82;;;;;;;;;;6254574;28;20291;-68
2023/06/11 11:58:22;;;;;;;7.63;7.03;;;;;;;;;;6251869;28;20029;-69
2023/06/11 12:01:26;;;;;;;6.37;5.77;;;;;;;;;;6254988;28;20043;-70
2023/06/11 12:04:32;;;;;;;6.65;6.05;;;;;;;;;;6249277;28;20172;-69
2023/06/11 12:07:32;;;;;;;7.35;6.47;;;;;;;;;;6254512;28;20049;-71
2023/06/11 12:10:33;;;;;;;8.13;6.07;;;;;;;;;;6253035;28;20902;-69
2023/06/11 12:13:33;;;;;;;6.47;5.93;;;;;;;;;;6252231;28;20044;-70
2023/06/11 12:16:34;;;;;;;6.82;6.13;;;;;;;;;;6254484;28;20028;-72
2023/06/11 12:19:34;;;;;;;6.72;6.13;;;;;;;;;;6254661;28;20060;-72
2023/06/11 12:22:34;;;;;;;6.90;6.30;;;;;;;;;;6252876;28;20048;-69
2023/06/11 12:25:35;;;;;;;6.68;6.03;;;;;;;;;;6251056;28;20284;-67
2023/06/11 12:28:36;;;;;;;6.93;6.10;;;;;;;;;;6256869;28;20013;-68
2023/06/11 12:31:37;;;;;;;7.35;6.10;;;;;;;;;;6251390;28;20040;-68
2023/06/11 12:34:37;;;;;;;7.05;6.13;;;;;;;;;;6251932;28;20042;-68
2023/06/11 12:37:37;;;;;;;6.73;6.23;;;;;;;;;;6246247;28;20434;-68
2023/06/11 12:40:37;;;;;;;6.70;6.03;;;;;;;;;;6244232;28;20586;-69
2023/06/11 12:43:38;;;;;;;6.30;5.90;;;;;;;;;;6250411;28;20025;-67
2023/06/11 12:46:38;;;;;;;6.40;5.90;;;;;;;;;;6252033;28;20431;-68
2023/06/11 12:49:38;;;;;;;6.15;5.65;;;;;;;;;;6251236;28;20028;-70
2023/06/11 12:52:41;;;;;;;6.65;6.10;;;;;;;;;;6252410;28;20029;-69
2023/06/11 12:55:42;;;;;;;7.07;6.07;;;;;;;;;;6254185;28;20013;-71
2023/06/11 12:58:42;;;;;;;6.50;5.90;;;;;;;;;;6252480;28;20075;-68
2023/06/11 13:01:42;;;;;;;6.50;5.83;;;;;;;;;;6244099;28;20025;-70
2023/06/11 13:04:43;;;;;;;6.85;6.22;;;;;;;;;;6247350;28;20283;-68
2023/06/11 13:07:45;;;;;;;6.35;5.80;;;;;;;;;;6250434;28;20036;-67
2023/06/11 13:10:45;;;;;;;9.63;6.90;;;;;;;;;;6248759;28;20104;-68
2023/06/11 13:13:46;;;;;;;7.20;6.68;;;;;;;;;;6248197;28;20028;-67
2023/06/11 13:16:47;;;;;;;7.25;6.72;;;;;;;;;;6251443;28;20024;-68
2023/06/11 13:19:47;;;;;;;7.35;6.75;;;;;;;;;;6246485;28;20044;-68
2023/06/11 13:22:47;;;;;;;7.15;6.55;;;;;;;;;;6250481;28;20029;-68
2023/06/11 13:25:48;;;;;;;7.13;6.43;;;;;;;;;;6251696;28;20031;-69
2023/06/11 13:28:48;;;;;;;6.63;6.03;;;;;;;;;;6251920;28;20032;-67
2023/06/11 13:31:49;;;;;;;6.68;5.75;;;;;;;;;;6260025;28;20397;-68
2023/06/11 13:34:49;;;;;;;6.75;6.18;;;;;;;;;;6252497;28;20031;-67
2023/06/11 13:37:50;;;;;;;6.15;5.65;;;;;;;;;;6246893;28;20025;-68
2023/06/11 13:40:51;;;;;;;5.60;5.20;;;;;;;;;;6248072;28;20035;-67
2023/06/11 13:43:51;;;;;;;5.88;5.38;;;;;;;;;;6248197;28;20021;-68
2023/06/11 13:46:51;;;;;;;5.53;5.07;;;;;;;;;;6247543;28;20039;-68
2023/06/11 13:49:51;;;;;;;5.27;4.87;;;;;;;;;;6251713;28;20025;-68
2023/06/11 13:52:52;;;;;;;5.47;4.93;;;;;;;;;;6243242;28;20028;-67
2023/06/11 13:55:52;;;;;;;5.80;5.30;;;;;;;;;;6253291;28;20394;-68
2023/06/11 13:58:52;;;;;;;5.45;4.95;;;;;;;;;;6255384;28;20262;-70
2023/06/11 14:01:54;;;;;;;5.50;5.10;;;;;;;;;;6246739;28;20028;-69
2023/06/11 14:04:55;;;;;;;5.53;5.10;;;;;;;;;;6250528;28;20482;-69
2023/06/11 14:07:56;;;;;;;5.83;4.90;;;;;;;;;;6248974;28;20017;-69
2023/06/11 14:10:56;;;;;;;5.65;5.20;;;;;;;;;;6253564;28;20027;-69
2023/06/11 14:13:58;;;;;;;5.67;5.03;;;;;;;;;;6249079;28;20478;-68
2023/06/11 14:17:01;;;;;;;5.40;4.95;;;;;;;;;;6247283;28;20032;-69
2023/06/11 14:20:04;;;;;;;5.53;5.03;;;;;;;;;;6250137;28;20017;-69
2023/06/11 14:23:05;;;;;;;6.18;5.68;;;;;;;;;;6248665;28;20401;-70
2023/06/11 14:26:05;;;;;;;7.47;5.60;;;;;;;;;;6251362;28;20028;-68
2023/06/11 14:29:05;;;;;;;5.60;5.10;;;;;;;;;;6248152;28;20394;-69
2023/06/11 14:32:06;;;;;;;6.27;5.67;;;;;;;;;;6248305;28;20278;-68
2023/06/11 14:35:06;;;;;;;6.07;5.55;;;;;;;;;;6244055;28;20279;-68
2023/06/11 14:38:06;;;;;;;5.45;5.03;;;;;;;;;;6246919;28;20028;-68
2023/06/11 14:41:07;;;;;;;6.18;5.40;;;;;;;;;;6247817;28;20032;-69
2023/06/11 14:44:07;;;;;;;5.97;5.47;;;;;;;;;;6250249;28;20126;-66
2023/06/11 14:47:08;;;;;;;5.70;4.88;;;;;;;;;;6255676;28;20306;-68
2023/06/11 14:50:09;;;;;;;5.67;5.10;;;;;;;;;;6252327;28;20430;-68
2023/06/11 14:53:11;;;;;;;4.97;4.57;;;;;;;;;;6258309;28;20701;-68
2023/06/11 14:56:11;;;;;;;5.32;4.88;;;;;;;;;;6255894;28;20502;-69
2023/06/11 14:59:11;;;;;;;5.43;4.93;;;;;;;;;;6250914;28;20116;-70
2023/06/11 15:02:14;;;;;;;5.73;5.30;;;;;;;;;;6251513;28;20013;-67
2023/06/11 15:05:14;;;;;;;5.43;5.03;;;;;;;;;;6252299;28;20032;-68
2023/06/11 15:08:14;;;;;;;5.60;5.03;;;;;;;;;;6245724;28;20013;-68
2023/06/11 15:11:15;;;;;;;5.15;4.70;;;;;;;;;;6247178;28;20062;-68
2023/06/11 15:14:15;;;;;;;13.13;5.15;;;;;;;;;;6249413;28;20052;-69
2023/06/11 15:17:15;;;;;;;5.03;4.63;;;;;;;;;;6250160;28;20154;-71
2023/06/11 15:20:15;;;;;;;5.70;5.17;;;;;;;;;;6250050;28;20797;-69
2023/06/11 15:23:16;;;;;;;6.20;4.63;;;;;;;;;;6245017;28;21667;-70
2023/06/11 15:26:16;;;;;;;5.17;4.77;;;;;;;;;;6246057;28;20280;-69
2023/06/11 15:29:16;;;;;;;5.37;4.97;;;;;;;;;;6253449;28;20256;-68
2023/06/11 15:32:19;;;;;;;5.45;4.95;;;;;;;;;;6247475;28;20297;-66
2023/06/11 15:35:19;;;;;;;5.88;5.18;;;;;;;;;;6246795;28;20025;-65
2023/06/11 15:38:20;;;;;;;5.88;5.38;;;;;;;;;;6245268;28;20055;-65
2023/06/11 15:41:20;;;;;;;5.97;5.37;;;;;;;;;;6249033;28;20037;-65
2023/06/11 15:44:20;;;;;;;6.20;5.60;;;;;;;;;;6252936;28;20280;-65
2023/06/11 15:47:20;;;;;;;5.87;5.37;;;;;;;;;;6244794;28;20017;-66
2023/06/11 15:50:21;;;;;;;5.65;5.15;;;;;;;;;;6247405;28;20271;-65
2023/06/11 15:53:21;;;;;;;5.60;5.10;;;;;;;;;;6246056;28;20529;-66
2023/06/11 15:56:22;;;;;;;5.20;4.80;;;;;;;;;;6242520;28;20799;-69
2023/06/11 15:59:22;;;;;;;6.40;5.32;;;;;;;;;;6247923;28;20025;-69
2023/06/11 16:02:24;;;;;;;5.75;5.18;;;;;;;;;;6247467;28;20022;-70
2023/06/11 16:05:24;;;;;;;6.47;5.20;;;;;;;;;;6247262;28;20035;-70
2023/06/11 16:08:24;;;;;;;5.57;5.03;;;;;;;;;;6247819;28;20548;-71
2023/06/11 16:11:24;;;;;;;5.20;4.80;;;;;;;;;;6245927;28;20025;-68
2023/06/11 16:14:25;;;;;;;4.88;4.50;;;;;;;;;;6241346;28;20024;-67
2023/06/11 16:17:25;;;;;;;5.13;4.60;;;;;;;;;;6247798;28;20043;-66
2023/06/11 16:20:26;;;;;;;4.88;4.50;;;;;;;;;;6248014;28;20017;-66
2023/06/11 16:23:26;;;;;;;4.90;4.45;;;;;;;;;;6251459;28;20083;-68
2023/06/11 16:26:27;;;;;;;4.82;4.50;;;;;;;;;;6253598;28;20029;-69
2023/06/11 16:29:27;;;;;;;6.00;5.03;;;;;;;;;;6253071;28;20037;-69
2023/06/11 16:32:28;;;;;;;4.83;4.43;;;;;;;;;;6249002;28;20674;-66
2023/06/11 16:35:28;;;;;;;4.88;4.47;;;;;;;;;;6249537;28;20482;-66
2023/06/11 16:38:28;;;;;;;5.30;4.80;;;;;;;;;;6249940;28;20032;-68
2023/06/11 16:41:29;;;;;;;4.82;4.40;;;;;;;;;;6252654;28;20025;-68
2023/06/11 16:44:29;;;;;;;5.00;4.60;;;;;;;;;;6250404;28;20037;-68
2023/06/11 16:47:29;;;;;;;5.40;4.43;;;;;;;;;;6249009;28;20036;-68
2023/06/11 16:50:29;;;;;;;5.28;4.63;;;;;;;;;;6252344;28;20298;-69
2023/06/11 16:53:30;;;;;;;5.15;4.63;;;;;;;;;;6246482;28;20021;-67
2023/06/11 16:56:31;;;;;;;4.90;4.50;;;;;;;;;;6258739;28;20032;-68
2023/06/11 16:59:31;;;;;;;5.05;4.35;;;;;;;;;;6257566;28;20052;-69
2023/06/11 17:02:33;;;;;;;4.97;4.57;;;;;;;;;;6255331;28;20028;-66
2023/06/11 17:05:33;;;;;;;5.47;4.32;;;;;;;;;;6252201;28;20283;-67
2023/06/11 17:08:33;;;;;;;4.73;4.23;;;;;;;;;;6253149;28;20863;-67
2023/06/11 17:11:33;;;;;;;5.37;4.93;;;;;;;;;;6252108;28;20112;-67
2023/06/11 17:14:34;;;;;;;5.03;4.55;;;;;;;;;;6248657;28;20025;-65
2023/06/11 17:17:35;;;;;;;5.53;5.03;;;;;;;;;;6249221;28;20537;-65
2023/06/11 17:20:39;;;;;;;5.43;4.68;;;;;;;;;;6249489;28;20029;-67
2023/06/11 17:23:39;;;;;;;5.40;4.75;;;;;;;;;;6249283;28;20170;-67
2023/06/11 17:26:41;;;;;;;5.67;5.17;;;;;;;;;;6248882;28;20029;-66
2023/06/11 17:29:41;;;;;;;6.47;4.97;;;;;;;;;;6246058;28;20278;-66
2023/06/11 17:32:41;;;;;;;5.70;5.07;;;;;;;;;;6250011;28;20108;-67
2023/06/11 17:35:42;;;;;;;6.13;4.63;;;;;;;;;;6246795;28;20777;-67
2023/06/11 17:38:42;;;;;;;5.45;5.03;;;;;;;;;;6248421;28;20283;-69
2023/06/11 17:41:42;;;;;;;6.10;4.30;;;;;;;;;;6247436;28;20037;-71
2023/06/11 17:44:42;;;;;;;4.77;4.37;;;;;;;;;;6249839;28;20294;-68
2023/06/11 17:47:42;;;;;;;4.37;4.00;;;;;;;;;;6248309;28;20278;-69
2023/06/11 17:50:43;;;;;;;4.93;4.53;;;;;;;;;;6247499;28;20107;-68
2023/06/11 17:53:43;;;;;;;4.43;4.03;;;;;;;;;;6252238;28;20333;-67
2023/06/11 17:56:44;;;;;;;4.07;3.67;;;;;;;;;;6249514;28;20344;-67
2023/06/11 17:59:44;;;;;;;4.38;3.97;;;;;;;;;;6251813;28;20279;-68
2023/06/11 18:02:45;;;;;;;4.82;4.43;;;;;;;;;;6254206;28;20029;-68
2023/06/11 18:05:45;;;;;;;5.07;4.43;;;;;;;;;;6250268;28;20478;-65
2023/06/11 18:08:45;;;;;;;4.40;4.00;;;;;;;;;;6249764;28;20036;-68
2023/06/11 18:11:45;;;;;;;4.37;4.03;;;;;;;;;;6253611;28;20282;-67